sensor_id;sensor_type;location;lat;lon;timestamp;temperature;humidity
2783;DHT22;1399;47.072;15.452;2022-11-09T00:02:16;11.20;66.40
2783;DHT22;1399;47.072;15.452;2022-11-09T00:04:41;11.20;66.40
2783;DHT22;1399;47.072;15.452;2022-11-09T00:07:07;11.20;66.40
2783;DHT22;1399;47.072;15.452;2022-11-09T00:09:34;11.10;66.30
2783;DHT22;1399;47.072;15.452;2022-11-09T00:11:59;11.10;66.30
2783;DHT22;1399;47.072;15.452;2022-11-09T00:14:29;11.10;66.20
2783;DHT22;1399;47.072;15.452;2022-11-09T00:16:55;11.10;66.20
2783;DHT22;1399;47.072;15.452;2022-11-09T00:19:22;11.10;66.10
2783;DHT22;1399;47.072;15.452;2022-11-09T00:21:48;11.10;66.10
2783;DHT22;1399;47.072;15.452;2022-11-09T00:24:14;11.10;66.00
2783;DHT22;1399;47.072;15.452;2022-11-09T00:26:40;11.10;65.90
2783;DHT22;1399;47.072;15.452;2022-11-09T00:29:06;11.10;65.90
2783;DHT22;1399;47.072;15.452;2022-11-09T00:31:33;11.10;66.80
2783;DHT22;1399;47.072;15.452;2022-11-09T00:33:59;11.00;65.80
2783;DHT22;1399;47.072;15.452;2022-11-09T00:36:26;11.00;65.80
2783;DHT22;1399;47.072;15.452;2022-11-09T00:38:56;11.00;65.80
2783;DHT22;1399;47.072;15.452;2022-11-09T00:41:23;11.00;65.80
2783;DHT22;1399;47.072;15.452;2022-11-09T00:43:49;11.00;65.80
2783;DHT22;1399;47.072;15.452;2022-11-09T00:46:16;11.00;65.70
2783;DHT22;1399;47.072;15.452;2022-11-09T00:48:42;11.00;66.50
2783;DHT22;1399;47.072;15.452;2022-11-09T00:51:08;11.00;65.40
2783;DHT22;1399;47.072;15.452;2022-11-09T00:53:35;11.00;65.40
2783;DHT22;1399;47.072;15.452;2022-11-09T00:56:03;10.90;65.30
2783;DHT22;1399;47.072;15.452;2022-11-09T00:58:32;10.90;65.20
2783;DHT22;1399;47.072;15.452;2022-11-09T01:00:59;10.90;65.20
2783;DHT22;1399;47.072;15.452;2022-11-09T01:03:26;10.90;65.20
2783;DHT22;1399;47.072;15.452;2022-11-09T01:05:52;10.90;65.20
2783;DHT22;1399;47.072;15.452;2022-11-09T01:08:18;10.90;65.20
2783;DHT22;1399;47.072;15.452;2022-11-09T01:10:46;10.90;65.30
2783;DHT22;1399;47.072;15.452;2022-11-09T01:13:14;10.90;65.20
2783;DHT22;1399;47.072;15.452;2022-11-09T01:15:47;10.90;65.10
2783;DHT22;1399;47.072;15.452;2022-11-09T01:18:14;10.80;65.00
2783;DHT22;1399;47.072;15.452;2022-11-09T01:20:45;10.80;65.00
2783;DHT22;1399;47.072;15.452;2022-11-09T01:23:13;10.80;64.90
2783;DHT22;1399;47.072;15.452;2022-11-09T01:25:39;10.80;64.90
2783;DHT22;1399;47.072;15.452;2022-11-09T01:28:06;10.80;64.90
2783;DHT22;1399;47.072;15.452;2022-11-09T01:30:40;10.80;64.80
2783;DHT22;1399;47.072;15.452;2022-11-09T01:33:09;10.80;64.80
2783;DHT22;1399;47.072;15.452;2022-11-09T01:35:37;10.80;64.80
2783;DHT22;1399;47.072;15.452;2022-11-09T01:38:05;10.70;64.70
2783;DHT22;1399;47.072;15.452;2022-11-09T01:40:32;10.70;64.70
2783;DHT22;1399;47.072;15.452;2022-11-09T01:43:00;10.70;64.70
2783;DHT22;1399;47.072;15.452;2022-11-09T01:45:30;10.70;64.60
2783;DHT22;1399;47.072;15.452;2022-11-09T01:48:11;10.70;64.60
2783;DHT22;1399;47.072;15.452;2022-11-09T01:50:48;10.70;64.60
2783;DHT22;1399;47.072;15.452;2022-11-09T01:53:22;10.70;64.50
2783;DHT22;1399;47.072;15.452;2022-11-09T01:55:52;10.70;64.40
2783;DHT22;1399;47.072;15.452;2022-11-09T01:58:32;10.70;64.30
2783;DHT22;1399;47.072;15.452;2022-11-09T02:01:00;10.70;64.20
2783;DHT22;1399;47.072;15.452;2022-11-09T02:03:39;10.70;64.10
2783;DHT22;1399;47.072;15.452;2022-11-09T02:06:10;10.70;64.10
2783;DHT22;1399;47.072;15.452;2022-11-09T02:08:38;10.70;64.20
2783;DHT22;1399;47.072;15.452;2022-11-09T02:11:13;10.70;64.20
2783;DHT22;1399;47.072;15.452;2022-11-09T02:13:43;10.60;64.00
2783;DHT22;1399;47.072;15.452;2022-11-09T02:16:11;10.60;64.00
2783;DHT22;1399;47.072;15.452;2022-11-09T02:18:41;10.60;64.00
2783;DHT22;1399;47.072;15.452;2022-11-09T02:21:10;10.60;64.80
2783;DHT22;1399;47.072;15.452;2022-11-09T02:23:35;10.60;63.90
2783;DHT22;1399;47.072;15.452;2022-11-09T02:26:08;10.60;63.80
2783;DHT22;1399;47.072;15.452;2022-11-09T02:28:37;10.60;63.80
2783;DHT22;1399;47.072;15.452;2022-11-09T02:31:05;10.60;63.70
2783;DHT22;1399;47.072;15.452;2022-11-09T02:36:16;10.50;63.50
2783;DHT22;1399;47.072;15.452;2022-11-09T02:38:42;10.50;63.50
2783;DHT22;1399;47.072;15.452;2022-11-09T02:41:08;10.50;63.40
2783;DHT22;1399;47.072;15.452;2022-11-09T02:43:36;10.50;63.40
2783;DHT22;1399;47.072;15.452;2022-11-09T02:46:02;10.50;63.40
2783;DHT22;1399;47.072;15.452;2022-11-09T02:48:28;10.50;63.40
2783;DHT22;1399;47.072;15.452;2022-11-09T02:50:54;10.50;63.30
2783;DHT22;1399;47.072;15.452;2022-11-09T02:53:19;10.50;63.40
2783;DHT22;1399;47.072;15.452;2022-11-09T02:55:45;10.50;63.40
2783;DHT22;1399;47.072;15.452;2022-11-09T02:58:11;10.40;63.30
2783;DHT22;1399;47.072;15.452;2022-11-09T03:00:36;10.40;63.20
2783;DHT22;1399;47.072;15.452;2022-11-09T03:03:03;10.40;63.30
2783;DHT22;1399;47.072;15.452;2022-11-09T03:05:29;10.40;63.20
2783;DHT22;1399;47.072;15.452;2022-11-09T03:07:54;10.40;63.10
2783;DHT22;1399;47.072;15.452;2022-11-09T03:10:21;10.40;63.00
2783;DHT22;1399;47.072;15.452;2022-11-09T03:12:47;10.40;63.00
2783;DHT22;1399;47.072;15.452;2022-11-09T03:15:13;10.40;64.00
2783;DHT22;1399;47.072;15.452;2022-11-09T03:17:39;10.40;63.10
2783;DHT22;1399;47.072;15.452;2022-11-09T03:20:05;10.40;63.10
2783;DHT22;1399;47.072;15.452;2022-11-09T03:22:31;10.40;63.10
2783;DHT22;1399;47.072;15.452;2022-11-09T03:24:57;10.40;63.00
2783;DHT22;1399;47.072;15.452;2022-11-09T03:27:23;10.40;63.00
2783;DHT22;1399;47.072;15.452;2022-11-09T03:29:48;10.40;63.00
2783;DHT22;1399;47.072;15.452;2022-11-09T03:32:14;10.40;63.00
2783;DHT22;1399;47.072;15.452;2022-11-09T03:34:40;10.40;63.00
2783;DHT22;1399;47.072;15.452;2022-11-09T03:37:05;10.30;62.80
2783;DHT22;1399;47.072;15.452;2022-11-09T03:39:31;10.40;62.90
2783;DHT22;1399;47.072;15.452;2022-11-09T03:41:58;10.40;62.90
2783;DHT22;1399;47.072;15.452;2022-11-09T03:44:23;10.30;62.80
2783;DHT22;1399;47.072;15.452;2022-11-09T03:46:49;10.30;62.80
2783;DHT22;1399;47.072;15.452;2022-11-09T03:49:15;10.30;62.70
2783;DHT22;1399;47.072;15.452;2022-11-09T03:51:40;10.30;62.70
2783;DHT22;1399;47.072;15.452;2022-11-09T03:54:06;10.40;62.70
2783;DHT22;1399;47.072;15.452;2022-11-09T03:56:32;10.30;62.60
2783;DHT22;1399;47.072;15.452;2022-11-09T03:58:58;10.30;62.50
2783;DHT22;1399;47.072;15.452;2022-11-09T04:01:23;10.30;62.50
2783;DHT22;1399;47.072;15.452;2022-11-09T04:03:49;10.30;62.40
2783;DHT22;1399;47.072;15.452;2022-11-09T04:06:15;10.30;62.30
2783;DHT22;1399;47.072;15.452;2022-11-09T04:08:40;10.30;62.30
2783;DHT22;1399;47.072;15.452;2022-11-09T04:11:06;10.30;62.30
2783;DHT22;1399;47.072;15.452;2022-11-09T04:13:32;10.30;62.90
2783;DHT22;1399;47.072;15.452;2022-11-09T04:15:58;10.30;62.00
2783;DHT22;1399;47.072;15.452;2022-11-09T04:18:24;10.30;62.00
2783;DHT22;1399;47.072;15.452;2022-11-09T04:20:49;10.20;61.80
2783;DHT22;1399;47.072;15.452;2022-11-09T04:23:15;10.20;61.90
2783;DHT22;1399;47.072;15.452;2022-11-09T04:25:41;10.20;61.80
2783;DHT22;1399;47.072;15.452;2022-11-09T04:28:09;10.20;61.90
2783;DHT22;1399;47.072;15.452;2022-11-09T04:30:36;10.20;61.90
2783;DHT22;1399;47.072;15.452;2022-11-09T04:33:03;10.20;61.90
2783;DHT22;1399;47.072;15.452;2022-11-09T04:35:31;10.10;61.70
2783;DHT22;1399;47.072;15.452;2022-11-09T04:37:59;10.10;61.70
2783;DHT22;1399;47.072;15.452;2022-11-09T04:40:27;10.10;61.70
2783;DHT22;1399;47.072;15.452;2022-11-09T04:42:53;10.10;61.70
2783;DHT22;1399;47.072;15.452;2022-11-09T04:45:20;10.10;61.70
2783;DHT22;1399;47.072;15.452;2022-11-09T04:47:47;10.10;61.80
2783;DHT22;1399;47.072;15.452;2022-11-09T04:50:13;10.10;61.90
2783;DHT22;1399;47.072;15.452;2022-11-09T04:52:39;10.10;61.90
2783;DHT22;1399;47.072;15.452;2022-11-09T04:55:05;10.10;62.00
2783;DHT22;1399;47.072;15.452;2022-11-09T04:57:31;10.10;62.10
2783;DHT22;1399;47.072;15.452;2022-11-09T04:59:57;10.10;62.00
2783;DHT22;1399;47.072;15.452;2022-11-09T05:02:22;10.00;61.90
2783;DHT22;1399;47.072;15.452;2022-11-09T05:04:48;10.10;62.00
2783;DHT22;1399;47.072;15.452;2022-11-09T05:07:14;10.10;61.80
2783;DHT22;1399;47.072;15.452;2022-11-09T05:09:40;10.00;61.70
2783;DHT22;1399;47.072;15.452;2022-11-09T05:12:06;10.00;61.80
2783;DHT22;1399;47.072;15.452;2022-11-09T05:14:31;10.00;61.80
2783;DHT22;1399;47.072;15.452;2022-11-09T05:16:57;10.00;61.80
2783;DHT22;1399;47.072;15.452;2022-11-09T05:19:23;10.00;61.80
2783;DHT22;1399;47.072;15.452;2022-11-09T05:21:48;10.00;61.90
2783;DHT22;1399;47.072;15.452;2022-11-09T05:24:14;10.00;62.70
2783;DHT22;1399;47.072;15.452;2022-11-09T05:26:41;10.00;61.90
2783;DHT22;1399;47.072;15.452;2022-11-09T05:29:09;10.00;61.90
2783;DHT22;1399;47.072;15.452;2022-11-09T05:31:36;10.00;62.00
2783;DHT22;1399;47.072;15.452;2022-11-09T05:34:03;10.00;62.00
2783;DHT22;1399;47.072;15.452;2022-11-09T05:36:29;10.00;62.00
2783;DHT22;1399;47.072;15.452;2022-11-09T05:38:57;10.00;61.90
2783;DHT22;1399;47.072;15.452;2022-11-09T05:41:23;10.00;61.90
2783;DHT22;1399;47.072;15.452;2022-11-09T05:43:49;10.00;61.80
2783;DHT22;1399;47.072;15.452;2022-11-09T05:46:16;10.00;61.80
2783;DHT22;1399;47.072;15.452;2022-11-09T05:48:42;10.00;61.70
2783;DHT22;1399;47.072;15.452;2022-11-09T05:51:09;10.00;61.70
2783;DHT22;1399;47.072;15.452;2022-11-09T05:53:36;10.00;61.70
2783;DHT22;1399;47.072;15.452;2022-11-09T05:56:04;10.00;61.80
2783;DHT22;1399;47.072;15.452;2022-11-09T05:58:30;10.00;61.80
2783;DHT22;1399;47.072;15.452;2022-11-09T06:01:04;10.00;61.70
2783;DHT22;1399;47.072;15.452;2022-11-09T06:03:30;10.00;61.70
2783;DHT22;1399;47.072;15.452;2022-11-09T06:05:59;10.00;61.70
2783;DHT22;1399;47.072;15.452;2022-11-09T06:08:26;10.00;61.60
2783;DHT22;1399;47.072;15.452;2022-11-09T06:11:00;10.00;61.60
2783;DHT22;1399;47.072;15.452;2022-11-09T06:13:27;10.00;62.40
2783;DHT22;1399;47.072;15.452;2022-11-09T06:15:57;10.00;61.50
2783;DHT22;1399;47.072;15.452;2022-11-09T06:18:24;10.00;61.50
2783;DHT22;1399;47.072;15.452;2022-11-09T06:20:51;10.00;61.50
2783;DHT22;1399;47.072;15.452;2022-11-09T06:23:17;10.00;61.40
2783;DHT22;1399;47.072;15.452;2022-11-09T06:25:43;10.10;61.50
2783;DHT22;1399;47.072;15.452;2022-11-09T06:28:09;10.10;61.40
2783;DHT22;1399;47.072;15.452;2022-11-09T06:30:35;10.10;61.40
2783;DHT22;1399;47.072;15.452;2022-11-09T06:33:01;10.10;61.30
2783;DHT22;1399;47.072;15.452;2022-11-09T06:35:28;10.10;61.20
2783;DHT22;1399;47.072;15.452;2022-11-09T06:37:58;10.10;61.20
2783;DHT22;1399;47.072;15.452;2022-11-09T06:40:25;10.10;61.10
2783;DHT22;1399;47.072;15.452;2022-11-09T06:42:50;10.10;61.10
2783;DHT22;1399;47.072;15.452;2022-11-09T06:45:16;10.10;61.00
2783;DHT22;1399;47.072;15.452;2022-11-09T06:47:42;10.10;61.00
2783;DHT22;1399;47.072;15.452;2022-11-09T06:50:08;10.10;61.00
2783;DHT22;1399;47.072;15.452;2022-11-09T06:52:34;10.20;61.10
2783;DHT22;1399;47.072;15.452;2022-11-09T06:54:59;10.20;61.10
2783;DHT22;1399;47.072;15.452;2022-11-09T06:57:28;10.20;61.10
2783;DHT22;1399;47.072;15.452;2022-11-09T06:59:54;10.20;61.10
2783;DHT22;1399;47.072;15.452;2022-11-09T07:02:20;10.20;61.20
2783;DHT22;1399;47.072;15.452;2022-11-09T07:04:50;10.20;61.10
2783;DHT22;1399;47.072;15.452;2022-11-09T07:07:15;10.20;61.10
2783;DHT22;1399;47.072;15.452;2022-11-09T07:09:41;10.20;61.20
2783;DHT22;1399;47.072;15.452;2022-11-09T07:12:08;10.30;61.20
2783;DHT22;1399;47.072;15.452;2022-11-09T07:14:34;10.30;61.30
2783;DHT22;1399;47.072;15.452;2022-11-09T07:17:00;10.30;61.30
2783;DHT22;1399;47.072;15.452;2022-11-09T07:19:27;10.30;61.40
2783;DHT22;1399;47.072;15.452;2022-11-09T07:21:54;10.40;61.50
2783;DHT22;1399;47.072;15.452;2022-11-09T07:24:20;10.40;61.60
2783;DHT22;1399;47.072;15.452;2022-11-09T07:26:47;10.40;61.60
2783;DHT22;1399;47.072;15.452;2022-11-09T07:29:13;10.40;61.70
2783;DHT22;1399;47.072;15.452;2022-11-09T07:31:39;10.40;61.70
2783;DHT22;1399;47.072;15.452;2022-11-09T07:34:05;10.40;61.70
2783;DHT22;1399;47.072;15.452;2022-11-09T07:36:31;10.50;61.80
2783;DHT22;1399;47.072;15.452;2022-11-09T07:38:57;10.50;61.80
2783;DHT22;1399;47.072;15.452;2022-11-09T07:41:23;10.50;62.80
2783;DHT22;1399;47.072;15.452;2022-11-09T07:43:50;10.50;62.00
2783;DHT22;1399;47.072;15.452;2022-11-09T07:46:15;10.50;62.10
2783;DHT22;1399;47.072;15.452;2022-11-09T07:48:41;10.60;62.30
2783;DHT22;1399;47.072;15.452;2022-11-09T07:51:07;10.60;62.30
2783;DHT22;1399;47.072;15.452;2022-11-09T07:53:33;10.60;62.40
2783;DHT22;1399;47.072;15.452;2022-11-09T07:56:00;10.70;62.50
2783;DHT22;1399;47.072;15.452;2022-11-09T07:58:27;10.70;62.70
2783;DHT22;1399;47.072;15.452;2022-11-09T08:00:52;10.70;62.80
2783;DHT22;1399;47.072;15.452;2022-11-09T08:03:19;10.70;62.80
2783;DHT22;1399;47.072;15.452;2022-11-09T08:05:47;10.80;62.90
2783;DHT22;1399;47.072;15.452;2022-11-09T08:08:13;10.80;63.00
2783;DHT22;1399;47.072;15.452;2022-11-09T08:10:40;10.90;63.20
2783;DHT22;1399;47.072;15.452;2022-11-09T08:13:11;10.90;63.20
2783;DHT22;1399;47.072;15.452;2022-11-09T08:15:39;10.90;64.10
2783;DHT22;1399;47.072;15.452;2022-11-09T08:18:11;10.90;63.20
2783;DHT22;1399;47.072;15.452;2022-11-09T08:20:37;11.00;63.40
2783;DHT22;1399;47.072;15.452;2022-11-09T08:23:03;11.00;63.30
2783;DHT22;1399;47.072;15.452;2022-11-09T08:25:29;11.00;63.30
2783;DHT22;1399;47.072;15.452;2022-11-09T08:27:55;11.10;63.40
2783;DHT22;1399;47.072;15.452;2022-11-09T08:30:22;11.10;63.40
2783;DHT22;1399;47.072;15.452;2022-11-09T08:32:48;11.10;63.40
2783;DHT22;1399;47.072;15.452;2022-11-09T08:35:17;11.20;63.40
2783;DHT22;1399;47.072;15.452;2022-11-09T08:37:45;11.20;63.30
2783;DHT22;1399;47.072;15.452;2022-11-09T08:40:12;11.20;63.30
2783;DHT22;1399;47.072;15.452;2022-11-09T08:42:38;11.30;63.40
2783;DHT22;1399;47.072;15.452;2022-11-09T08:45:04;11.30;63.40
2783;DHT22;1399;47.072;15.452;2022-11-09T08:47:30;11.30;63.40
2783;DHT22;1399;47.072;15.452;2022-11-09T08:49:56;11.40;63.60
2783;DHT22;1399;47.072;15.452;2022-11-09T08:52:22;11.40;63.60
2783;DHT22;1399;47.072;15.452;2022-11-09T08:54:48;11.50;63.70
2783;DHT22;1399;47.072;15.452;2022-11-09T08:57:16;11.50;63.50
2783;DHT22;1399;47.072;15.452;2022-11-09T08:59:43;11.50;63.50
2783;DHT22;1399;47.072;15.452;2022-11-09T09:02:10;11.50;63.50
2783;DHT22;1399;47.072;15.452;2022-11-09T09:04:35;11.60;63.60
2783;DHT22;1399;47.072;15.452;2022-11-09T09:07:01;11.60;63.60
2783;DHT22;1399;47.072;15.452;2022-11-09T09:09:27;11.60;63.50
2783;DHT22;1399;47.072;15.452;2022-11-09T09:11:53;11.60;63.50
2783;DHT22;1399;47.072;15.452;2022-11-09T09:14:19;11.70;63.60
2783;DHT22;1399;47.072;15.452;2022-11-09T09:16:44;11.70;63.60
2783;DHT22;1399;47.072;15.452;2022-11-09T09:19:10;11.70;63.60
2783;DHT22;1399;47.072;15.452;2022-11-09T09:21:36;11.80;63.70
2783;DHT22;1399;47.072;15.452;2022-11-09T09:24:01;11.80;63.70
2783;DHT22;1399;47.072;15.452;2022-11-09T09:26:28;11.80;63.80
2783;DHT22;1399;47.072;15.452;2022-11-09T09:28:54;11.90;63.90
2783;DHT22;1399;47.072;15.452;2022-11-09T09:31:19;11.90;64.00
2783;DHT22;1399;47.072;15.452;2022-11-09T09:33:45;11.90;63.90
2783;DHT22;1399;47.072;15.452;2022-11-09T09:36:20;11.90;63.90
2783;DHT22;1399;47.072;15.452;2022-11-09T09:38:49;12.00;63.90
2783;DHT22;1399;47.072;15.452;2022-11-09T09:41:22;12.00;63.90
2783;DHT22;1399;47.072;15.452;2022-11-09T09:43:51;12.00;64.10
2783;DHT22;1399;47.072;15.452;2022-11-09T09:46:37;12.00;64.00
2783;DHT22;1399;47.072;15.452;2022-11-09T09:49:27;12.10;64.20
2783;DHT22;1399;47.072;15.452;2022-11-09T09:51:59;12.10;64.20
2783;DHT22;1399;47.072;15.452;2022-11-09T09:55:06;12.10;64.10
2783;DHT22;1399;47.072;15.452;2022-11-09T09:57:34;12.10;64.20
2783;DHT22;1399;47.072;15.452;2022-11-09T10:00:04;12.20;64.30
2783;DHT22;1399;47.072;15.452;2022-11-09T10:02:34;12.20;64.30
2783;DHT22;1399;47.072;15.452;2022-11-09T10:05:05;12.20;64.20
2783;DHT22;1399;47.072;15.452;2022-11-09T10:18:27;12.40;64.40
2783;DHT22;1399;47.072;15.452;2022-11-09T10:24:26;12.40;64.40
2783;DHT22;1399;47.072;15.452;2022-11-09T10:27:00;12.40;64.50
2783;DHT22;1399;47.072;15.452;2022-11-09T10:29:45;12.40;64.60
2783;DHT22;1399;47.072;15.452;2022-11-09T10:32:20;12.50;64.80
2783;DHT22;1399;47.072;15.452;2022-11-09T10:37:40;12.50;65.00
2783;DHT22;1399;47.072;15.452;2022-11-09T10:40:22;12.50;65.10
2783;DHT22;1399;47.072;15.452;2022-11-09T10:43:13;12.50;65.10
2783;DHT22;1399;47.072;15.452;2022-11-09T10:45:42;12.50;65.20
2783;DHT22;1399;47.072;15.452;2022-11-09T10:48:10;12.60;65.30
2783;DHT22;1399;47.072;15.452;2022-11-09T10:50:40;12.60;65.50
2783;DHT22;1399;47.072;15.452;2022-11-09T10:53:30;12.60;65.60
2783;DHT22;1399;47.072;15.452;2022-11-09T10:56:12;12.60;65.70
2783;DHT22;1399;47.072;15.452;2022-11-09T10:58:48;12.60;65.80
2783;DHT22;1399;47.072;15.452;2022-11-09T11:01:20;12.60;65.80
2783;DHT22;1399;47.072;15.452;2022-11-09T11:03:50;12.70;66.00
2783;DHT22;1399;47.072;15.452;2022-11-09T11:11:36;12.70;66.00
2783;DHT22;1399;47.072;15.452;2022-11-09T11:14:21;12.70;66.00
2783;DHT22;1399;47.072;15.452;2022-11-09T11:16:48;12.80;66.10
2783;DHT22;1399;47.072;15.452;2022-11-09T11:25:04;12.80;66.20
2783;DHT22;1399;47.072;15.452;2022-11-09T11:30:15;12.80;66.10
2783;DHT22;1399;47.072;15.452;2022-11-09T11:32:43;12.90;66.20
2783;DHT22;1399;47.072;15.452;2022-11-09T11:35:33;12.90;66.30
2783;DHT22;1399;47.072;15.452;2022-11-09T11:40:51;12.90;66.20
2783;DHT22;1399;47.072;15.452;2022-11-09T11:46:37;13.00;66.40
2783;DHT22;1399;47.072;15.452;2022-11-09T11:55:02;13.00;66.40
2783;DHT22;1399;47.072;15.452;2022-11-09T12:00:14;13.00;66.40
2783;DHT22;1399;47.072;15.452;2022-11-09T12:08:26;13.10;66.40
2783;DHT22;1399;47.072;15.452;2022-11-09T12:16:48;13.10;66.50
2783;DHT22;1399;47.072;15.452;2022-11-09T12:20:13;13.10;66.50
2783;DHT22;1399;47.072;15.452;2022-11-09T12:25:28;13.10;66.50
2783;DHT22;1399;47.072;15.452;2022-11-09T12:31:24;13.20;66.80
2783;DHT22;1399;47.072;15.452;2022-11-09T12:34:06;13.20;66.70
2783;DHT22;1399;47.072;15.452;2022-11-09T12:36:52;13.20;66.70
2783;DHT22;1399;47.072;15.452;2022-11-09T12:47:40;13.20;66.80
2783;DHT22;1399;47.072;15.452;2022-11-09T12:50:16;13.20;66.90
2783;DHT22;1399;47.072;15.452;2022-11-09T12:52:44;13.20;66.90
2783;DHT22;1399;47.072;15.452;2022-11-09T12:55:34;13.20;66.90
2783;DHT22;1399;47.072;15.452;2022-11-09T12:58:00;13.30;67.00
2783;DHT22;1399;47.072;15.452;2022-11-09T13:00:50;13.30;67.10
2783;DHT22;1399;47.072;15.452;2022-11-09T13:03:27;13.30;67.10
2783;DHT22;1399;47.072;15.452;2022-11-09T13:06:29;13.30;67.10
2783;DHT22;1399;47.072;15.452;2022-11-09T13:16:53;13.40;67.60
2783;DHT22;1399;47.072;15.452;2022-11-09T13:27:45;13.40;67.80
2783;DHT22;1399;47.072;15.452;2022-11-09T13:38:27;13.40;68.10
2783;DHT22;1399;47.072;15.452;2022-11-09T13:43:43;13.40;68.20
2783;DHT22;1399;47.072;15.452;2022-11-09T13:48:45;13.40;68.30
2783;DHT22;1399;47.072;15.452;2022-11-09T13:51:55;13.40;68.40
2783;DHT22;1399;47.072;15.452;2022-11-09T13:54:32;13.40;68.50
2783;DHT22;1399;47.072;15.452;2022-11-09T13:57:02;13.40;68.70
2783;DHT22;1399;47.072;15.452;2022-11-09T13:59:35;13.40;68.70
2783;DHT22;1399;47.072;15.452;2022-11-09T14:02:17;13.40;68.80
2783;DHT22;1399;47.072;15.452;2022-11-09T14:04:43;13.40;69.00
2783;DHT22;1399;47.072;15.452;2022-11-09T14:07:22;13.40;69.10
2783;DHT22;1399;47.072;15.452;2022-11-09T14:18:39;13.40;69.40
2783;DHT22;1399;47.072;15.452;2022-11-09T14:21:52;13.40;69.40
2783;DHT22;1399;47.072;15.452;2022-11-09T14:23:53;13.50;69.70
2783;DHT22;1399;47.072;15.452;2022-11-09T14:26:21;13.50;69.70
2783;DHT22;1399;47.072;15.452;2022-11-09T14:28:48;13.50;69.70
2783;DHT22;1399;47.072;15.452;2022-11-09T14:31:28;13.50;69.70
2783;DHT22;1399;47.072;15.452;2022-11-09T14:34:04;13.40;69.60
2783;DHT22;1399;47.072;15.452;2022-11-09T14:36:33;13.50;69.70
2783;DHT22;1399;47.072;15.452;2022-11-09T14:39:02;13.50;69.70
2783;DHT22;1399;47.072;15.452;2022-11-09T14:41:28;13.50;69.60
2783;DHT22;1399;47.072;15.452;2022-11-09T14:43:56;13.50;69.70
2783;DHT22;1399;47.072;15.452;2022-11-09T14:46:28;13.40;69.50
2783;DHT22;1399;47.072;15.452;2022-11-09T14:48:57;13.40;69.50
2783;DHT22;1399;47.072;15.452;2022-11-09T14:51:35;13.40;69.50
2783;DHT22;1399;47.072;15.452;2022-11-09T14:54:06;13.40;69.50
2783;DHT22;1399;47.072;15.452;2022-11-09T14:56:34;13.40;69.40
2783;DHT22;1399;47.072;15.452;2022-11-09T14:59:04;13.40;69.40
2783;DHT22;1399;47.072;15.452;2022-11-09T15:01:30;13.40;69.40
2783;DHT22;1399;47.072;15.452;2022-11-09T15:04:17;13.40;69.40
2783;DHT22;1399;47.072;15.452;2022-11-09T15:06:53;13.40;69.50
2783;DHT22;1399;47.072;15.452;2022-11-09T15:09:30;13.30;69.30
2783;DHT22;1399;47.072;15.452;2022-11-09T15:11:57;13.30;69.30
2783;DHT22;1399;47.072;15.452;2022-11-09T15:14:27;13.30;69.40
2783;DHT22;1399;47.072;15.452;2022-11-09T15:17:15;13.30;69.40
2783;DHT22;1399;47.072;15.452;2022-11-09T15:25:18;13.20;69.30
2783;DHT22;1399;47.072;15.452;2022-11-09T15:27:56;13.10;69.20
2783;DHT22;1399;47.072;15.452;2022-11-09T15:30:29;13.10;69.30
2783;DHT22;1399;47.072;15.452;2022-11-09T15:32:55;13.10;69.30
2783;DHT22;1399;47.072;15.452;2022-11-09T15:35:22;13.00;69.30
2783;DHT22;1399;47.072;15.452;2022-11-09T15:37:50;13.00;69.40
2783;DHT22;1399;47.072;15.452;2022-11-09T15:40:21;13.00;69.40
2783;DHT22;1399;47.072;15.452;2022-11-09T15:42:47;12.90;69.40
2783;DHT22;1399;47.072;15.452;2022-11-09T15:45:18;12.90;69.40
2783;DHT22;1399;47.072;15.452;2022-11-09T15:47:50;12.90;69.50
2783;DHT22;1399;47.072;15.452;2022-11-09T15:50:19;12.90;69.60
2783;DHT22;1399;47.072;15.452;2022-11-09T15:52:45;12.80;69.60
2783;DHT22;1399;47.072;15.452;2022-11-09T15:55:13;12.80;69.70
2783;DHT22;1399;47.072;15.452;2022-11-09T15:57:38;12.80;69.70
2783;DHT22;1399;47.072;15.452;2022-11-09T16:00:05;12.70;69.80
2783;DHT22;1399;47.072;15.452;2022-11-09T16:02:31;12.70;69.80
2783;DHT22;1399;47.072;15.452;2022-11-09T16:04:56;12.70;69.90
2783;DHT22;1399;47.072;15.452;2022-11-09T16:07:22;12.70;70.00
2783;DHT22;1399;47.072;15.452;2022-11-09T16:09:48;12.60;70.00
2783;DHT22;1399;47.072;15.452;2022-11-09T16:12:14;12.60;70.10
2783;DHT22;1399;47.072;15.452;2022-11-09T16:14:39;12.60;70.10
2783;DHT22;1399;47.072;15.452;2022-11-09T16:17:06;12.60;71.10
2783;DHT22;1399;47.072;15.452;2022-11-09T16:19:31;12.50;70.20
2783;DHT22;1399;47.072;15.452;2022-11-09T16:21:57;12.50;70.30
2783;DHT22;1399;47.072;15.452;2022-11-09T16:24:25;12.50;70.40
2783;DHT22;1399;47.072;15.452;2022-11-09T16:26:52;12.50;70.50
2783;DHT22;1399;47.072;15.452;2022-11-09T16:29:19;12.50;70.60
2783;DHT22;1399;47.072;15.452;2022-11-09T16:31:45;12.40;70.50
2783;DHT22;1399;47.072;15.452;2022-11-09T16:34:11;12.40;70.60
2783;DHT22;1399;47.072;15.452;2022-11-09T16:36:37;12.40;70.70
2783;DHT22;1399;47.072;15.452;2022-11-09T16:39:05;12.40;70.80
2783;DHT22;1399;47.072;15.452;2022-11-09T16:41:36;12.40;70.90
2783;DHT22;1399;47.072;15.452;2022-11-09T16:44:02;12.40;71.00
2783;DHT22;1399;47.072;15.452;2022-11-09T16:46:28;12.40;71.00
2783;DHT22;1399;47.072;15.452;2022-11-09T16:48:54;12.40;71.10
2783;DHT22;1399;47.072;15.452;2022-11-09T16:51:22;12.40;71.20
2783;DHT22;1399;47.072;15.452;2022-11-09T16:53:48;12.40;71.20
2783;DHT22;1399;47.072;15.452;2022-11-09T16:56:14;12.40;71.30
2783;DHT22;1399;47.072;15.452;2022-11-09T16:58:39;12.30;71.30
2783;DHT22;1399;47.072;15.452;2022-11-09T17:01:05;12.30;71.30
2783;DHT22;1399;47.072;15.452;2022-11-09T17:03:31;12.30;71.30
2783;DHT22;1399;47.072;15.452;2022-11-09T17:06:01;12.30;71.30
2783;DHT22;1399;47.072;15.452;2022-11-09T17:08:27;12.30;71.40
2783;DHT22;1399;47.072;15.452;2022-11-09T17:10:53;12.30;71.40
2783;DHT22;1399;47.072;15.452;2022-11-09T17:13:19;12.30;71.40
2783;DHT22;1399;47.072;15.452;2022-11-09T17:15:47;12.30;71.50
2783;DHT22;1399;47.072;15.452;2022-11-09T17:18:13;12.30;71.50
2783;DHT22;1399;47.072;15.452;2022-11-09T17:20:43;12.30;71.60
2783;DHT22;1399;47.072;15.452;2022-11-09T17:23:09;12.30;71.60
2783;DHT22;1399;47.072;15.452;2022-11-09T17:25:36;12.30;71.60
2783;DHT22;1399;47.072;15.452;2022-11-09T17:28:03;12.30;71.60
2783;DHT22;1399;47.072;15.452;2022-11-09T17:30:29;12.20;71.50
2783;DHT22;1399;47.072;15.452;2022-11-09T17:32:55;12.30;71.60
2783;DHT22;1399;47.072;15.452;2022-11-09T17:35:22;12.20;71.50
2783;DHT22;1399;47.072;15.452;2022-11-09T17:37:48;12.30;71.70
2783;DHT22;1399;47.072;15.452;2022-11-09T17:40:15;12.30;71.70
2783;DHT22;1399;47.072;15.452;2022-11-09T17:42:44;12.20;71.50
2783;DHT22;1399;47.072;15.452;2022-11-09T17:45:10;12.20;71.60
2783;DHT22;1399;47.072;15.452;2022-11-09T17:47:38;12.20;71.50
2783;DHT22;1399;47.072;15.452;2022-11-09T17:50:04;12.20;71.50
2783;DHT22;1399;47.072;15.452;2022-11-09T17:52:31;12.20;71.50
2783;DHT22;1399;47.072;15.452;2022-11-09T17:54:57;12.20;71.50